Time;durP1;ratioP1;P1;durP2;ratioP2;P2;SDS_P1;SDS_P2;PMS_P1;PMS_P2;Temp;Humidity;BMP_temperature;BMP_pressure;BME280_temperature;BME280_humidity;BME280_pressure;Samples;Min_cycle;Max_cycle;Signal;HPM_P1;HPM_P2
2022/10/10 00:00:49;;;;;;;17.20;11.20;;;;;;;5.81;85.88;99458.52;102562;1298;24463;-69
2022/10/10 00:03:29;;;;;;;14.90;9.30;;;;;;;5.78;86.04;99451.45;102547;1290;138003;-69
2022/10/10 00:05:55;;;;;;;15.90;10.50;;;;;;;5.75;86.12;99453.52;102526;1313;24346;-69
2022/10/10 00:08:22;;;;;;;19.40;11.80;;;;;;;5.70;86.18;99449.97;102529;1313;137560;-69
2022/10/10 00:10:49;;;;;;;20.40;10.70;;;;;;;5.67;86.36;99448.86;102578;1300;22484;-69
2022/10/10 00:13:16;;;;;;;19.30;10.80;;;;;;;5.64;86.61;99444.05;102547;1291;25400;-69
2022/10/10 00:15:45;;;;;;;17.10;10.50;;;;;;;5.62;86.78;99440.61;102639;1314;138527;-69
2022/10/10 00:18:12;;;;;;;16.70;10.10;;;;;;;5.60;86.88;99437.64;102672;1307;25579;-69
2022/10/10 00:20:38;;;;;;;14.60;9.80;;;;;;;5.58;87.04;99438.81;102517;1314;137726;-69
2022/10/10 00:23:05;;;;;;;17.10;10.80;;;;;;;5.54;87.07;99433.32;102569;1313;22458;-69
2022/10/10 00:25:32;;;;;;;14.70;9.90;;;;;;;5.54;87.21;99435.92;102565;1306;138891;-69
2022/10/10 00:28:03;;;;;;;21.20;10.20;;;;;;;5.55;87.39;99432.54;102735;1291;25428;-69
2022/10/10 00:30:34;;;;;;;16.20;9.00;;;;;;;5.56;87.48;99432.72;102615;1314;26205;-69
2022/10/10 00:33:00;;;;;;;17.40;9.60;;;;;;;5.58;87.40;99430.16;102501;1301;138176;-69
2022/10/10 00:35:27;;;;;;;15.00;9.30;;;;;;;5.57;87.43;99428.70;102598;1290;25310;-69
2022/10/10 00:37:54;;;;;;;14.90;10.30;;;;;;;5.54;87.50;99427.54;102480;1290;137555;-69
2022/10/10 00:40:22;;;;;;;19.40;10.10;;;;;;;5.51;87.58;99426.10;102614;1314;24476;-69
2022/10/10 00:42:49;;;;;;;15.50;9.20;;;;;;;5.53;87.86;99428.23;102695;1313;22662;-69
2022/10/10 00:45:30;;;;;;;18.40;10.60;;;;;;;5.55;87.95;99419.77;102572;1290;137887;-69
2022/10/10 00:48:02;;;;;;;15.30;9.20;;;;;;;5.55;87.83;99419.56;102737;1283;22488;-69
2022/10/10 00:50:36;;;;;;;18.30;10.40;;;;;;;5.50;87.48;99413.40;102482;1307;137426;-69
2022/10/10 00:53:05;;;;;;;16.40;10.30;;;;;;;5.47;87.77;99410.45;102606;1312;23397;-69
2022/10/10 00:55:33;;;;;;;19.00;10.40;;;;;;;5.45;87.76;99409.20;103066;1294;138907;-69
2022/10/10 00:58:02;;;;;;;16.20;10.00;;;;;;;5.43;87.54;99409.41;102747;1312;25369;-69
2022/10/10 01:00:29;;;;;;;16.40;9.70;;;;;;;5.42;87.69;99405.41;102841;1298;25456;-69
2022/10/10 01:02:56;;;;;;;17.10;10.40;;;;;;;5.42;87.88;99404.94;102667;1291;137358;-69
2022/10/10 01:05:24;;;;;;;18.10;10.70;;;;;;;5.40;88.10;99404.29;102647;1313;24308;-69
2022/10/10 01:07:51;;;;;;;22.50;13.70;;;;;;;5.38;88.05;99398.04;102609;1313;137815;-68
2022/10/10 01:10:21;;;;;;;25.90;11.10;;;;;;;5.37;88.13;99399.94;102587;1306;24051;-69
2022/10/10 01:13:03;;;;;;;18.90;10.90;;;;;;;5.36;88.07;99395.42;102654;1313;22574;-69
2022/10/10 01:15:49;;;;;;;19.80;10.10;;;;;;;5.37;88.12;99391.70;102746;1301;137908;-69
2022/10/10 01:18:23;;;;;;;15.00;10.50;;;;;;;5.38;88.29;99390.98;102907;1306;22896;-69
2022/10/10 01:21:12;;;;;;;18.40;10.90;;;;;;;5.41;88.34;99391.50;102741;1312;137595;-69
2022/10/10 01:23:52;;;;;;;16.60;10.80;;;;;;;5.43;88.31;99391.41;102796;1312;22457;-69
2022/10/10 01:26:31;;;;;;;19.20;10.60;;;;;;;5.43;87.69;99390.54;102519;1313;138460;-69
2022/10/10 01:29:02;;;;;;;16.20;10.00;;;;;;;5.43;87.38;99386.96;102697;1291;25343;-69
2022/10/10 01:31:32;;;;;;;16.90;9.60;;;;;;;5.42;87.27;99387.91;102455;1291;137730;-69
2022/10/10 01:34:22;;;;;;;17.60;10.40;;;;;;;5.42;87.13;99385.98;102619;1313;22488;-69
2022/10/10 01:36:56;;;;;;;14.10;9.70;;;;;;;5.41;87.29;99389.35;102817;1313;22513;-70
2022/10/10 01:40:06;;;;;;;17.10;11.20;;;;;;;5.42;87.00;99388.69;102704;1312;138295;-69
2022/10/10 01:42:49;;;;;;;26.90;10.20;;;;;;;5.44;86.93;99387.77;102873;1305;22471;-69
2022/10/10 01:45:16;;;;;;;15.60;10.10;;;;;;;5.43;86.77;99385.34;102662;1310;138012;-69
2022/10/10 01:47:43;;;;;;;22.00;10.80;;;;;;;5.41;86.59;99381.52;102569;1313;24040;-69
2022/10/10 01:50:15;;;;;;;19.20;10.60;;;;;;;5.37;86.19;99379.73;102419;1314;137897;-69
2022/10/10 01:52:55;;;;;;;16.20;10.60;;;;;;;5.33;85.93;99377.23;102615;1314;24395;-69
2022/10/10 01:55:32;;;;;;;18.20;10.50;;;;;;;5.33;86.42;99379.02;102471;1313;138386;-70
2022/10/10 01:58:23;;;;;;;15.20;9.70;;;;;;;5.33;86.19;99375.42;102596;1314;24446;-69
2022/10/10 02:01:12;;;;;;;15.20;9.60;;;;;;;5.30;85.98;99378.29;102696;1314;22566;-69
2022/10/10 02:03:52;;;;;;;18.50;11.20;;;;;;;5.26;85.96;99372.16;102547;1314;137247;-70
2022/10/10 02:06:27;;;;;;;17.90;10.20;;;;;;;5.23;85.86;99367.77;102579;1313;22472;-69
2022/10/10 02:09:00;;;;;;;20.80;10.10;;;;;;;5.21;85.93;99360.76;102692;1300;137898;-70
2022/10/10 02:11:31;;;;;;;15.60;9.50;;;;;;;5.16;85.80;99361.77;102599;1313;25077;-69
2022/10/10 02:14:30;;;;;;;16.60;10.00;;;;;;;5.08;85.83;99355.61;102614;1291;137567;-69
2022/10/10 02:17:02;;;;;;;16.40;9.50;;;;;;;5.00;86.50;99359.27;101891;1318;22734;-69
2022/10/10 02:19:29;;;;;;;18.30;10.20;;;;;;;4.99;87.00;99359.05;101876;1318;138233;-69
2022/10/10 02:21:57;;;;;;;19.90;10.30;;;;;;;4.98;86.98;99354.51;101906;1319;22580;-68
2022/10/10 02:24:24;;;;;;;16.90;9.90;;;;;;;5.00;87.05;99352.09;102015;1305;22484;-69
2022/10/10 02:27:10;;;;;;;27.70;11.90;;;;;;;5.01;87.17;99347.49;101962;1302;137335;-69
2022/10/10 02:29:38;;;;;;;17.20;10.50;;;;;;;4.98;87.17;99349.57;101994;1303;22493;-69
2022/10/10 02:32:11;;;;;;;17.80;9.40;;;;;;;4.95;87.27;99346.02;101911;1321;138531;-68
2022/10/10 02:34:41;;;;;;;14.40;9.30;;;;;;;4.94;87.37;99343.55;101981;1319;25539;-68
2022/10/10 02:37:11;;;;;;;16.00;10.50;;;;;;;4.96;87.74;99345.73;101917;1304;24469;-68
2022/10/10 02:39:45;;;;;;;18.00;10.30;;;;;;;4.94;87.52;99340.34;101897;1320;138281;-68
2022/10/10 02:42:16;;;;;;;17.10;10.50;;;;;;;4.91;87.38;99340.04;102010;1319;22606;-68
2022/10/10 02:44:45;;;;;;;14.50;9.90;;;;;;;4.88;87.55;99342.17;101808;1299;138316;-68
2022/10/10 02:47:12;;;;;;;18.10;9.50;;;;;;;4.87;87.63;99344.42;102009;1318;22618;-70
2022/10/10 02:49:39;;;;;;;15.20;9.40;;;;;;;4.86;87.73;99343.27;101973;1298;138188;-68
2022/10/10 02:52:07;;;;;;;18.30;10.60;;;;;;;4.86;87.91;99342.77;101937;1319;24720;-67
2022/10/10 02:54:33;;;;;;;15.60;9.50;;;;;;;4.86;88.05;99339.16;102544;1303;22553;-69
2022/10/10 02:57:00;;;;;;;18.70;10.60;;;;;;;4.86;87.90;99336.16;102815;1297;138319;-69
2022/10/10 02:59:27;;;;;;;16.00;10.00;;;;;;;4.84;87.75;99337.09;102913;1298;22543;-70
2022/10/10 03:01:54;;;;;;;15.00;9.70;;;;;;;4.83;87.61;99339.15;102670;1310;185505;-69
2022/10/10 03:04:21;;;;;;;15.80;9.90;;;;;;;4.83;87.59;99333.77;102866;1287;25549;-73
2022/10/10 03:06:48;;;;;;;12.10;8.80;;;;;;;4.83;87.37;99335.61;102776;1305;22869;-68
2022/10/10 03:09:15;;;;;;;17.80;9.90;;;;;;;4.81;87.32;99336.55;102634;1312;137383;-71
2022/10/10 03:11:44;;;;;;;;;;;;;;;4.77;87.25;99334.71;102676;1312;25297;-72
2022/10/10 03:14:11;;;;;;;18.30;9.90;;;;;;;4.75;87.49;99334.30;102626;1312;124244;-71
2022/10/10 03:16:41;;;;;;;17.60;10.50;;;;;;;4.75;87.58;99332.23;102705;1287;22581;-69
2022/10/10 03:19:08;;;;;;;17.40;10.50;;;;;;;4.74;87.72;99323.53;102850;1303;24076;-69
2022/10/10 03:21:35;;;;;;;19.70;11.10;;;;;;;4.73;87.83;99323.27;102684;1312;137584;-73
2022/10/10 03:24:04;;;;;;;17.90;8.60;;;;;;;4.72;87.72;99326.26;102724;1289;22484;-73
2022/10/10 03:26:31;;;;;;;18.60;10.60;;;;;;;4.64;87.46;99324.69;102782;1312;137715;-69
2022/10/10 03:29:00;;;;;;;17.40;10.20;;;;;;;4.59;87.67;99324.67;102741;1312;25477;-69
2022/10/10 03:31:27;;;;;;;17.30;11.10;;;;;;;4.55;87.88;99326.67;102631;1312;138471;-71
2022/10/10 03:33:58;;;;;;;16.10;9.70;;;;;;;4.55;88.02;99318.55;102787;1312;22538;-71
2022/10/10 03:36:25;;;;;;;16.70;10.00;;;;;;;4.55;87.81;99316.59;102820;1306;22575;-69
2022/10/10 03:38:52;;;;;;;20.00;11.00;;;;;;;4.56;88.01;99311.86;102733;1303;137507;-69
2022/10/10 03:41:19;;;;;;;17.70;10.50;;;;;;;4.57;88.09;99318.77;102812;1312;25332;-69
2022/10/10 03:43:46;;;;;;;17.70;10.80;;;;;;;4.54;87.29;99316.95;102673;1291;138457;-69
2022/10/10 03:46:13;;;;;;;14.80;9.50;;;;;;;4.51;87.34;99313.54;102818;1310;22512;-69
2022/10/10 03:48:40;;;;;;;22.30;9.80;;;;;;;4.52;87.72;99309.27;102816;1303;22487;-69
2022/10/10 03:51:06;;;;;;;14.30;9.40;;;;;;;4.54;87.93;99303.47;102745;1312;137370;-69
2022/10/10 03:53:33;;;;;;;16.40;9.30;;;;;;;4.53;87.95;99306.10;102941;1304;25410;-69
2022/10/10 03:56:00;;;;;;;16.50;9.70;;;;;;;4.52;87.97;99303.51;102773;1312;138118;-69
2022/10/10 03:58:27;;;;;;;19.10;10.50;;;;;;;4.52;87.91;99297.04;102866;1312;22535;-69
2022/10/10 04:00:59;;;;;;;16.10;10.00;;;;;;;4.52;88.06;99293.59;102924;1312;22476;-69
2022/10/10 04:03:26;;;;;;;14.30;7.80;;;;;;;4.50;87.83;99292.78;102794;1312;138077;-70
2022/10/10 04:05:53;;;;;;;16.70;8.80;;;;;;;4.46;88.12;99287.16;103015;1312;24435;-69
2022/10/10 04:08:20;;;;;;;13.50;9.20;;;;;;;4.42;88.13;99285.81;102785;1312;138111;-69
2022/10/10 04:10:52;;;;;;;15.20;9.50;;;;;;;4.43;88.53;99291.67;102804;1303;22475;-69
2022/10/10 04:13:21;;;;;;;16.70;9.00;;;;;;;4.43;88.28;99290.36;102809;1312;25353;-69
2022/10/10 04:15:52;;;;;;;12.70;8.80;;;;;;;4.44;88.27;99289.33;103073;1312;22530;-69
2022/10/10 04:18:19;;;;;;;13.60;8.30;;;;;;;4.44;88.08;99291.60;102852;1299;23893;-70
2022/10/10 04:20:49;;;;;;;12.70;8.30;;;;;;;4.44;88.11;99292.98;102691;1300;137417;-71
2022/10/10 04:23:16;;;;;;;13.70;9.10;;;;;;;4.45;88.40;99292.29;102719;1301;23904;-72
2022/10/10 04:25:43;;;;;;;12.30;9.00;;;;;;;4.44;88.08;99292.19;102681;1298;138075;-70
2022/10/10 04:28:11;;;;;;;13.90;8.70;;;;;;;4.42;88.01;99293.28;102753;1297;23898;-72
2022/10/10 04:30:38;;;;;;;11.20;7.20;;;;;;;4.37;87.97;99291.92;102826;1312;24459;-73
2022/10/10 04:33:06;;;;;;;12.60;8.70;;;;;;;4.37;88.18;99289.71;102839;1287;137455;-71
2022/10/10 04:35:33;;;;;;;13.80;8.20;;;;;;;4.33;88.07;99291.57;102796;1312;22658;-70
2022/10/10 04:37:59;;;;;;;14.30;8.90;;;;;;;4.32;88.47;99292.99;102736;1294;137488;-70
2022/10/10 04:40:26;;;;;;;13.90;9.00;;;;;;;4.31;88.26;99294.29;102782;1312;24389;-70
2022/10/10 04:42:54;;;;;;;13.50;7.90;;;;;;;4.31;88.26;99298.98;102794;1309;22522;-72
2022/10/10 04:45:25;;;;;;;16.70;8.10;;;;;;;4.34;88.00;99299.59;102680;1287;137769;-69
2022/10/10 04:47:55;;;;;;;12.60;8.80;;;;;;;4.34;87.92;99296.61;102761;1312;24185;-70
2022/10/10 04:50:23;;;;;;;13.40;8.60;;;;;;;4.35;87.71;99296.91;102718;1314;137432;-71
2022/10/10 04:52:49;;;;;;;12.80;9.30;;;;;;;4.35;87.65;99299.40;102765;1309;24463;-69
2022/10/10 04:55:17;;;;;;;12.80;8.50;;;;;;;4.35;87.67;99295.27;102668;1302;25364;-74
2022/10/10 04:57:43;;;;;;;13.00;8.30;;;;;;;4.37;87.61;99290.41;102735;1297;138153;-69
2022/10/10 05:00:10;;;;;;;11.50;7.90;;;;;;;4.36;87.35;99291.00;102736;1287;23054;-72
2022/10/10 05:02:37;;;;;;;11.60;8.10;;;;;;;4.36;87.49;99291.00;102649;1312;137433;-74
2022/10/10 05:05:05;;;;;;;14.10;8.90;;;;;;;4.35;87.41;99292.02;102756;1313;22524;-72
2022/10/10 05:07:32;;;;;;;13.20;8.90;;;;;;;4.33;86.98;99289.91;102595;1313;137752;-73
2022/10/10 05:09:59;;;;;;;17.00;7.90;;;;;;;4.29;86.77;99291.22;102775;1291;25329;-74
2022/10/10 05:12:27;;;;;;;14.90;8.30;;;;;;;4.25;86.65;99289.16;102721;1293;22594;-73
2022/10/10 05:14:53;;;;;;;11.40;7.60;;;;;;;4.23;86.75;99287.46;102625;1312;137744;-70
2022/10/10 05:17:20;;;;;;;14.60;8.90;;;;;;;4.21;87.01;99288.02;102756;1312;25307;-72
2022/10/10 05:19:47;;;;;;;14.40;8.60;;;;;;;4.18;87.08;99285.41;102657;1313;137605;-70
2022/10/10 05:22:14;;;;;;;15.20;9.20;;;;;;;4.17;87.21;99286.60;102733;1300;23874;-71
2022/10/10 05:24:41;;;;;;;14.60;8.80;;;;;;;4.17;87.16;99282.03;102702;1312;25595;-70
2022/10/10 05:27:08;;;;;;;12.40;8.50;;;;;;;4.15;87.16;99283.25;102621;1310;138134;-69
2022/10/10 05:29:34;;;;;;;10.70;7.50;;;;;;;4.16;87.65;99282.80;102721;1313;22598;-73
2022/10/10 05:32:01;;;;;;;13.30;7.50;;;;;;;4.17;87.69;99285.19;102540;1306;137367;-74
2022/10/10 05:34:28;;;;;;;13.20;8.40;;;;;;;4.15;87.49;99292.26;102875;1312;22468;-70
2022/10/10 05:36:55;;;;;;;12.40;8.30;;;;;;;4.15;87.90;99292.79;102714;1294;25289;-69
2022/10/10 05:39:22;;;;;;;13.30;8.30;;;;;;;4.17;88.07;99297.92;102807;1294;138163;-70
2022/10/10 05:41:49;;;;;;;12.00;8.20;;;;;;;4.21;88.07;99302.23;102747;1312;24272;-69
2022/10/10 05:44:16;;;;;;;11.00;7.60;;;;;;;4.22;88.00;99304.39;102612;1298;138136;-73
2022/10/10 05:46:43;;;;;;;11.50;7.30;;;;;;;4.24;88.01;99306.73;102704;1303;22868;-72
2022/10/10 05:49:10;;;;;;;15.50;8.60;;;;;;;4.25;88.44;99302.09;102713;1312;24514;-71
2022/10/10 05:51:37;;;;;;;13.20;7.30;;;;;;;4.28;88.78;99307.22;102735;1290;137315;-70
2022/10/10 05:54:04;;;;;;;13.90;8.30;;;;;;;4.31;88.77;99305.27;102794;1312;25458;-72
2022/10/10 05:56:31;;;;;;;12.70;7.80;;;;;;;4.34;88.69;99309.02;102629;1312;139933;-73
2022/10/10 05:58:58;;;;;;;13.70;8.90;;;;;;;4.37;88.70;99307.06;102516;1313;22474;-72
2022/10/10 06:01:24;;;;;;;14.40;7.90;;;;;;;4.43;88.83;99311.10;102602;1313;138260;-69
2022/10/10 06:03:54;;;;;;;12.10;7.30;;;;;;;4.49;89.21;99306.98;102755;1312;22486;-71
2022/10/10 06:06:23;;;;;;;11.00;7.20;;;;;;;4.56;89.32;99305.55;102610;1297;22490;-69
2022/10/10 06:08:50;;;;;;;11.20;7.70;;;;;;;4.62;89.35;99296.97;102506;1307;137478;-70
2022/10/10 06:11:19;;;;;;;12.00;8.00;;;;;;;4.66;89.16;99299.64;102699;1312;25478;-70
2022/10/10 06:13:48;;;;;;;12.20;7.60;;;;;;;4.69;89.10;99299.95;102633;1313;138179;-73
2022/10/10 06:16:15;;;;;;;12.00;6.70;;;;;;;4.75;89.18;99300.19;102766;1306;24017;-69
2022/10/10 06:18:43;;;;;;;10.50;6.50;;;;;;;4.80;89.02;99299.93;102765;1302;24129;-72
2022/10/10 06:21:11;;;;;;;13.00;7.10;;;;;;;4.83;88.95;99298.15;102612;1309;137379;-70
2022/10/10 06:23:38;;;;;;;9.80;7.30;;;;;;;4.87;88.97;99300.89;102852;1313;24349;-74
2022/10/10 06:26:05;;;;;;;9.40;7.10;;;;;;;4.91;88.88;99299.52;102662;1293;137484;-69
2022/10/10 06:28:33;;;;;;;15.30;7.70;;;;;;;4.98;90.23;99295.98;102672;1302;22647;-73
2022/10/10 06:31:02;;;;;;;11.60;7.20;;;;;;;5.23;90.95;99293.40;102758;1312;26531;-73
2022/10/10 06:33:29;;;;;;;11.50;6.50;;;;;;;5.39;89.54;99297.73;102453;1306;137773;-71
2022/10/10 06:35:56;;;;;;;8.10;6.00;;;;;;;5.46;88.76;99296.20;102565;1313;25390;-70
2022/10/10 06:38:23;;;;;;;10.20;6.70;;;;;;;5.49;88.27;99299.63;102310;1300;137223;-71
2022/10/10 06:40:50;;;;;;;9.70;6.50;;;;;;;5.49;87.88;99300.47;102535;1312;22526;-77
2022/10/10 06:43:17;;;;;;;10.70;7.00;;;;;;;5.51;88.03;99305.59;102722;1312;25440;-74
2022/10/10 06:45:46;;;;;;;13.40;7.70;;;;;;;5.53;87.93;99306.86;102643;1312;137835;-70
2022/10/10 06:48:14;;;;;;;12.50;6.80;;;;;;;5.55;87.94;99307.47;102764;1312;22486;-71
2022/10/10 06:50:42;;;;;;;11.00;6.90;;;;;;;5.58;88.10;99302.59;102649;1312;138222;-71
2022/10/10 06:53:09;;;;;;;10.80;7.20;;;;;;;5.64;88.11;99299.88;102486;1313;22480;-70
2022/10/10 06:55:35;;;;;;;11.20;6.70;;;;;;;5.70;88.01;99299.27;102425;1313;140890;-71
2022/10/10 06:58:02;;;;;;;11.70;6.30;;;;;;;5.79;88.33;99296.66;102507;1313;25696;-70
2022/10/10 07:00:29;;;;;;;11.00;7.40;;;;;;;5.86;88.25;99299.26;102485;1313;22673;-76
2022/10/10 07:02:56;;;;;;;9.40;6.90;;;;;;;5.92;87.90;99303.27;102668;1297;137389;-71
2022/10/10 07:05:23;;;;;;;12.50;7.10;;;;;;;5.99;87.98;99305.30;102757;1300;25346;-71
2022/10/10 07:07:50;;;;;;;10.40;6.40;;;;;;;6.06;87.75;99304.88;102686;1312;138407;-71
2022/10/10 07:10:17;;;;;;;13.50;6.80;;;;;;;6.15;87.90;99304.91;102715;1312;25354;-72
2022/10/10 07:12:44;;;;;;;11.30;6.60;;;;;;;6.24;87.68;99303.04;102441;1313;25489;-71
2022/10/10 07:15:12;;;;;;;12.50;6.40;;;;;;;6.32;87.51;99303.51;102494;1313;137503;-71
2022/10/10 07:17:39;;;;;;;9.00;5.70;;;;;;;6.41;87.76;99301.94;102540;1313;22866;-71
2022/10/10 07:20:06;;;;;;;10.00;6.50;;;;;;;6.48;87.37;99298.17;102445;1313;137654;-71
2022/10/10 07:22:33;;;;;;;9.80;6.00;;;;;;;6.56;87.54;99298.92;102593;1312;24317;-72
2022/10/10 07:25:00;;;;;;;9.80;6.00;;;;;;;6.64;87.38;99290.15;102698;1312;25378;-73
2022/10/10 07:27:27;;;;;;;7.50;5.10;;;;;;;6.73;87.16;99284.66;102607;1312;137933;-75
2022/10/10 07:29:53;;;;;;;6.40;4.70;;;;;;;6.81;87.02;99282.61;102608;1307;22494;-71
2022/10/10 07:32:21;;;;;;;8.60;4.80;;;;;;;6.90;86.69;99281.67;102400;1313;137404;-70
2022/10/10 07:34:49;;;;;;;11.60;5.30;;;;;;;6.99;86.23;99281.84;102585;1313;25458;-72
2022/10/10 07:37:16;;;;;;;7.10;4.80;;;;;;;7.05;85.93;99278.95;102571;1313;23762;-75
2022/10/10 07:39:43;;;;;;;7.10;4.80;;;;;;;7.14;85.86;99278.70;102507;1290;137996;-72
2022/10/10 07:42:10;;;;;;;7.00;5.00;;;;;;;7.23;85.79;99279.52;102588;1290;22503;-74
2022/10/10 07:44:37;;;;;;;6.80;4.80;;;;;;;7.31;85.44;99279.17;102637;1297;137846;-71
2022/10/10 07:47:04;;;;;;;9.60;4.50;;;;;;;7.41;85.62;99278.61;102696;1291;24416;-72
2022/10/10 07:49:31;;;;;;;6.70;4.30;;;;;;;7.52;85.38;99281.70;102624;1306;138354;-74
2022/10/10 07:51:57;;;;;;;7.00;4.30;;;;;;;7.62;85.45;99276.34;102727;1297;22480;-69
2022/10/10 07:54:24;;;;;;;6.80;4.40;;;;;;;7.72;84.95;99275.18;102484;1313;22567;-71
2022/10/10 07:56:51;;;;;;;6.40;4.20;;;;;;;7.83;84.73;99274.44;102467;1290;137882;-71
2022/10/10 07:59:18;;;;;;;6.60;4.10;;;;;;;7.93;84.60;99270.33;102528;1290;22528;-70
2022/10/10 08:01:46;;;;;;;5.30;4.00;;;;;;;8.05;84.48;99266.27;102423;1314;138639;-71
2022/10/10 08:04:12;;;;;;;6.00;4.00;;;;;;;8.16;84.07;99265.40;102737;1297;25243;-70
2022/10/10 08:06:39;;;;;;;7.80;4.60;;;;;;;8.28;83.79;99265.98;102747;1305;22536;-75
2022/10/10 08:09:06;;;;;;;8.10;4.70;;;;;;;8.39;83.50;99260.48;102627;1291;137569;-71
2022/10/10 08:11:33;;;;;;;5.20;3.80;;;;;;;8.48;83.09;99259.96;102542;1313;24346;-70
2022/10/10 08:14:00;;;;;;;7.20;5.30;;;;;;;8.58;82.70;99256.61;102438;1305;137508;-71
2022/10/10 08:16:27;;;;;;;5.40;4.00;;;;;;;8.68;82.25;99258.29;102541;1298;23928;-71
2022/10/10 08:18:54;;;;;;;5.30;3.40;;;;;;;8.79;82.07;99261.06;102588;1313;22518;-71
2022/10/10 08:21:23;;;;;;;6.90;3.70;;;;;;;8.89;81.88;99257.02;102561;1313;137607;-71
2022/10/10 08:23:50;;;;;;;9.70;3.70;;;;;;;9.00;81.60;99255.89;102726;1305;25280;-71
2022/10/10 08:26:18;;;;;;;6.00;3.20;;;;;;;9.11;81.44;99249.23;102712;1312;137139;-71
2022/10/10 08:28:47;;;;;;;5.90;4.60;;;;;;;9.22;80.80;99250.15;102820;1312;22495;-70
2022/10/10 08:31:17;;;;;;;6.50;3.70;;;;;;;9.32;80.79;99246.13;102762;1312;22598;-72
2022/10/10 08:33:44;;;;;;;7.50;4.10;;;;;;;9.42;80.07;99242.51;102632;1312;137819;-70
2022/10/10 08:36:18;;;;;;;10.20;4.60;;;;;;;9.54;80.28;99240.15;102632;1309;24429;-71
2022/10/10 08:38:46;;;;;;;9.80;4.30;;;;;;;9.71;79.50;99233.71;102310;1313;137551;-70
2022/10/10 08:41:27;;;;;;;4.80;3.70;;;;;;;9.82;79.09;99230.36;102619;1313;24258;-68
2022/10/10 08:43:57;;;;;;;7.10;4.10;;;;;;;9.90;78.76;99234.16;102528;1310;137454;-70
2022/10/10 08:46:50;;;;;;;6.80;3.90;;;;;;;9.99;78.52;99233.58;102695;1303;22478;-72
2022/10/10 08:49:39;;;;;;;5.90;4.10;;;;;;;10.08;78.16;99229.98;102668;1297;24439;-71
2022/10/10 08:52:38;;;;;;;5.00;3.90;;;;;;;10.19;77.84;99226.41;102856;1283;22470;-72
2022/10/10 08:55:15;;;;;;;5.20;3.90;;;;;;;10.33;77.13;99224.95;102730;1307;23046;-71
2022/10/10 08:57:51;;;;;;;5.10;4.00;;;;;;;10.43;76.97;99222.61;102845;1304;137446;-71
2022/10/10 09:00:21;;;;;;;7.20;4.30;;;;;;;10.53;76.98;99212.67;102726;1296;26675;-70
2022/10/10 09:02:51;;;;;;;4.60;3.50;;;;;;;10.65;76.88;99210.19;102730;1312;137421;-71
2022/10/10 09:05:40;;;;;;;7.50;4.30;;;;;;;10.76;76.47;99206.88;102871;1301;22475;-72
2022/10/10 09:08:10;;;;;;;;;;;;;;;10.89;75.79;99202.50;101918;1317;138805;-69
2022/10/10 09:10:51;;;;;;;5.90;4.00;;;;;;;10.98;74.99;99196.37;102112;1308;25402;-70
2022/10/10 09:13:27;;;;;;;7.20;3.80;;;;;;;11.07;74.43;99193.29;102059;1318;22540;-70
2022/10/10 09:16:01;;;;;;;7.80;4.00;;;;;;;11.13;73.37;99187.54;102117;1312;25358;-68
2022/10/10 09:18:49;;;;;;;5.90;3.50;;;;;;;11.21;73.47;99188.89;102064;1318;24258;-70
2022/10/10 09:21:30;;;;;;;7.20;4.00;;;;;;;11.32;73.00;99185.80;101981;1290;137493;-74
2022/10/10 09:24:07;;;;;;;5.80;4.00;;;;;;;11.42;72.79;99174.77;102077;1297;22649;-74
2022/10/10 09:26:39;;;;;;;6.70;3.60;;;;;;;11.49;72.18;99174.94;101968;1318;137540;-68
2022/10/10 09:29:44;;;;;;;8.00;3.40;;;;;;;11.57;71.99;99170.08;102263;1318;22494;-69
2022/10/10 09:32:15;;;;;;;4.60;3.80;;;;;;;11.67;71.04;99164.34;101988;1295;137916;-71
2022/10/10 09:34:50;;;;;;;3.70;2.90;;;;;;;11.78;71.28;99164.78;102135;1304;22645;-70
2022/10/10 09:37:22;;;;;;;4.40;3.50;;;;;;;11.91;70.94;99160.17;102051;1314;23062;-73
2022/10/10 09:39:54;;;;;;;6.10;3.30;;;;;;;12.02;70.25;99161.09;101909;1318;137400;-75
2022/10/10 09:42:34;;;;;;;3.70;3.30;;;;;;;12.13;69.82;99161.69;102160;1314;23918;-69
2022/10/10 09:45:02;;;;;;;3.50;2.80;;;;;;;12.25;69.23;99162.45;102046;1312;137362;-70
2022/10/10 09:47:29;;;;;;;6.40;3.80;;;;;;;12.34;68.57;99162.10;102806;1312;23741;-69
2022/10/10 09:49:58;;;;;;;8.10;3.60;;;;;;;12.42;68.88;99162.67;102621;1284;137572;-71
2022/10/10 09:52:28;;;;;;;10.40;3.60;;;;;;;12.50;68.76;99160.11;102772;1312;22547;-71
2022/10/10 09:55:13;;;;;;;6.20;3.80;;;;;;;12.60;68.54;99161.18;102888;1312;22550;-70
2022/10/10 09:57:41;;;;;;;4.60;3.70;;;;;;;12.68;68.49;99158.53;102732;1313;137382;-70
2022/10/10 10:00:18;;;;;;;9.10;3.60;;;;;;;12.77;68.52;99153.02;103291;1306;21766;-69
2022/10/10 10:02:49;;;;;;;4.90;3.60;;;;;;;12.87;68.05;99146.00;102501;1313;137388;-70
2022/10/10 10:05:27;;;;;;;4.70;3.40;;;;;;;12.96;67.71;99146.51;102623;1313;22529;-70
2022/10/10 10:07:57;;;;;;;6.70;3.50;;;;;;;13.07;67.65;99144.42;102507;1312;138613;-70
2022/10/10 10:10:26;;;;;;;4.20;3.70;;;;;;;13.16;66.61;99143.42;102987;1287;25309;-70
2022/10/10 10:12:54;;;;;;;7.20;3.50;;;;;;;13.22;66.52;99142.73;102542;1313;23985;-69
2022/10/10 10:15:30;;;;;;;5.10;3.30;;;;;;;13.31;66.08;99135.09;102516;1313;137907;-71
2022/10/10 10:18:20;;;;;;;4.60;3.30;;;;;;;13.40;65.73;99136.41;102496;1314;23266;-70
2022/10/10 10:20:52;;;;;;;6.30;3.40;;;;;;;13.48;65.11;99129.02;102348;1306;137385;-72
2022/10/10 10:23:31;;;;;;;5.70;3.10;;;;;;;13.52;65.64;99125.16;102593;1307;25438;-70
2022/10/10 10:26:05;;;;;;;5.20;3.30;;;;;;;13.58;65.04;99126.14;102332;1313;138026;-70
2022/10/10 10:28:39;;;;;;;7.10;3.00;;;;;;;13.65;64.77;99126.81;102580;1313;22550;-71
2022/10/10 10:31:44;;;;;;;4.50;3.50;;;;;;;13.70;64.42;99124.81;102515;1312;23060;-73
2022/10/10 10:34:36;;;;;;;6.60;3.20;;;;;;;13.78;64.11;99124.28;102651;1314;22468;-72
2022/10/10 10:37:12;;;;;;;6.10;3.50;;;;;;;13.87;64.40;99118.06;102621;1289;22525;-71
2022/10/10 10:39:38;;;;;;;4.90;3.00;;;;;;;13.97;64.12;99120.69;102621;1306;137466;-71
2022/10/10 10:42:22;;;;;;;4.00;3.10;;;;;;;14.06;63.96;99115.83;102444;1313;24323;-70
2022/10/10 10:45:12;;;;;;;7.70;2.90;;;;;;;14.15;63.60;99112.27;102445;1297;137474;-71
2022/10/10 10:48:05;;;;;;;3.90;3.10;;;;;;;14.23;63.21;99106.92;102556;1306;22494;-71
2022/10/10 10:50:50;;;;;;;5.70;2.90;;;;;;;14.32;62.63;99100.74;102563;1307;137499;-73
2022/10/10 10:53:42;;;;;;;5.00;3.40;;;;;;;14.38;62.57;99093.65;102589;1291;22839;-73
2022/10/10 10:56:24;;;;;;;5.20;2.90;;;;;;;14.46;62.38;99090.23;102291;1291;138055;-75
2022/10/10 10:58:54;;;;;;;4.40;2.90;;;;;;;14.54;62.32;99076.67;102731;1312;22765;-74
2022/10/10 11:01:55;;;;;;;6.00;3.20;;;;;;;14.62;62.19;99076.21;102743;1306;22868;-71
2022/10/10 11:04:51;;;;;;;3.50;2.60;;;;;;;14.73;62.03;99073.93;102103;1303;25727;-72
2022/10/10 11:07:22;;;;;;;3.50;2.30;;;;;;;14.82;61.35;99067.06;101349;1324;22695;-73
2022/10/10 11:09:51;;;;;;;3.50;2.30;;;;;;;14.89;60.49;99068.71;101396;1307;137476;-70
2022/10/10 11:12:37;;;;;;;3.30;2.40;;;;;;;14.96;59.70;99061.71;101419;1300;22610;-70
2022/10/10 11:15:16;;;;;;;3.90;2.30;;;;;;;15.03;58.91;99058.42;101312;1324;137395;-71
2022/10/10 11:18:09;;;;;;;4.60;2.40;;;;;;;15.09;58.38;99054.32;101519;1318;22885;-71
2022/10/10 11:20:51;;;;;;;5.70;2.30;;;;;;;15.17;58.25;99054.01;101411;1309;137941;-72
2022/10/10 11:23:24;;;;;;;5.70;2.20;;;;;;;15.22;57.02;99048.58;101497;1325;24432;-70
2022/10/10 11:26:05;;;;;;;6.60;2.60;;;;;;;15.28;57.33;99051.42;101440;1324;137847;-71
2022/10/10 11:28:56;;;;;;;5.40;2.70;;;;;;;15.36;57.59;99047.27;101968;1317;23688;-76
2022/10/10 11:31:35;;;;;;;7.50;2.60;;;;;;;15.51;57.34;99042.05;101534;1324;24262;-71
2022/10/10 11:34:06;;;;;;;;;;;;;;;15.63;55.52;99036.16;101542;1324;22459;-70
2022/10/10 11:36:37;;;;;;;5.30;2.60;;;;;;;15.71;55.78;99033.19;101437;1312;22620;-70
2022/10/10 11:39:13;;;;;;;6.40;2.70;;;;;;;15.80;55.54;99031.80;101452;1314;137718;-71
2022/10/10 11:41:50;;;;;;;5.20;2.60;;;;;;;15.86;55.35;99024.85;101783;1318;22511;-71